Time;durP1;ratioP1;P1;durP2;ratioP2;P2;SDS_P1;SDS_P2;PMS_P1;PMS_P2;Temp;Humidity;BMP_temperature;BMP_pressure;BME280_temperature;BME280_humidity;BME280_pressure;Samples;Min_cycle;Max_cycle;Signal;HPM_P1;HPM_P2
2022/02/07 00:00:20;;;;;;;;;;;;;;;7.01;93.77;97667.13;1742457;80;20135;-82
2022/02/07 00:05:29;;;;;;;;;;;;;;;6.86;93.49;97686.63;1746820;80;20183;-81
2022/02/07 00:07:55;;;;;;;;;;;;;;;7.33;92.32;97665.33;1745162;80;20517;-82
2022/02/07 00:10:21;;;;;;;;;;;;;;;7.35;91.86;97667.27;1752945;80;20275;-82
2022/02/07 00:12:46;;;;;;;;;;;;;;;7.21;92.28;97673.45;1751130;81;20247;-83
2022/02/07 00:15:16;;;;;;;;;;;;;;;7.13;92.96;97679.69;1746967;80;21078;-82
2022/02/07 00:17:41;;;;;;;;;;;;;;;7.29;92.78;97675.94;1743522;80;20214;-83
2022/02/07 00:20:13;;;;;;;;;;;;;;;7.33;91.86;97677.97;1748413;80;20507;-82
2022/02/07 00:22:35;;;;;;;;;;;;;;;7.33;92.49;97685.84;1745487;80;21189;-84
2022/02/07 00:25:01;;;;;;;;;;;;;;;7.34;92.82;97686.64;1745794;80;20216;-82
2022/02/07 00:27:27;;;;;;;;;;;;;;;7.08;94.22;97706.51;1755147;80;21151;-83
2022/02/07 00:29:52;;;;;;;;;;;;;;;6.74;95.53;97720.44;1753317;80;20440;-83
2022/02/07 00:32:18;;;;;;;;;;;;;;;7.09;94.89;97726.51;1749372;80;20131;-83
2022/02/07 00:34:43;;;;;;;;;;;;;;;6.97;95.22;97701.30;1745043;80;20159;-82
2022/02/07 00:37:09;;;;;;;;;;;;;;;6.95;95.42;97714.33;1721664;82;20270;-82
2022/02/07 00:39:46;;;;;;;;;;;;;;;6.95;95.60;97747.12;1735024;80;21956;-82
2022/02/07 00:42:08;;;;;;;;;;;;;;;6.88;95.80;97712.95;1753888;80;20432;-80
2022/02/07 00:44:35;;;;;;;;;;;;;;;7.05;95.50;97735.76;1754728;80;20658;-80
2022/02/07 00:47:08;;;;;;;;;;;;;;;6.81;95.91;97783.75;1741451;80;20154;-81
2022/02/07 00:49:29;;;;;;;;;;;;;;;6.95;96.24;97752.37;1730189;81;20617;-80
2022/02/07 00:51:54;;;;;;;;;;;;;;;7.05;95.71;97764.62;1725464;81;21086;-81
2022/02/07 00:54:22;;;;;;;;;;;;;;;6.71;96.18;97747.88;1729910;80;20747;-81
2022/02/07 00:56:47;;;;;;;;;;;;;;;7.08;94.87;97785.23;1738691;80;20172;-81
2022/02/07 00:59:13;;;;;;;;;;;;;;;7.03;94.26;97797.33;1735541;80;20131;-81
2022/02/07 01:01:39;;;;;;;;;;;;;;;6.94;94.86;97769.10;1739050;80;20166;-81
2022/02/07 01:04:04;;;;;;;;;;;;;;;6.88;95.40;97768.55;1746422;81;21066;-78
2022/02/07 01:06:30;;;;;;;;;;;;;;;6.97;93.50;97789.20;1744327;80;20182;-79
2022/02/07 01:09:21;;;;;;;;;;;;;;;6.76;93.03;97790.07;1737409;80;20525;-80
2022/02/07 01:14:29;;;;;;;;;;;;;;;7.12;92.13;97769.42;1713256;81;20195;-80
2022/02/07 01:54:33;;;;;;;;;;;;;;;6.76;87.96;97795.31;1725065;81;20505;-81
2022/02/07 01:56:49;;;;;;;;;;;;;;;6.90;87.37;97787.53;1734414;81;20562;-81
2022/02/07 01:59:17;;;;;;;;;;;;;;;6.87;87.88;97804.96;1728224;81;20158;-81
2022/02/07 02:01:44;;;;;;;;;;;;;;;6.66;87.92;97821.05;1719998;81;20187;-81
2022/02/07 02:04:10;;;;;;;;;;;;;;;6.88;86.61;97813.16;1734255;81;20231;-81
2022/02/07 02:06:37;;;;;;;;;;;;;;;7.04;86.31;97836.98;1723199;81;20628;-82
2022/02/07 02:09:03;;;;;;;;;;;;;;;7.03;86.19;97822.26;1730002;81;21140;-82
2022/02/07 02:11:30;;;;;;;;;;;;;;;6.95;86.36;97812.72;1725031;81;20545;-82
2022/02/07 02:16:53;;;;;;;;;;;;;;;6.72;86.61;97825.54;1723211;81;20129;-82
2022/02/07 02:37:59;;;;;;;;;;;;;;;6.77;86.40;97853.83;1730052;81;20641;-82
2022/02/07 02:45:35;;;;;;;;;;;;;;;6.93;85.52;97831.27;1722084;81;20231;-81
2022/02/07 02:48:04;;;;;;;;;;;;;;;7.10;84.22;97837.05;1734906;81;21068;-80
2022/02/07 02:50:35;;;;;;;;;;;;;;;7.04;84.50;97833.88;1730222;81;20316;-81
2022/02/07 02:53:11;;;;;;;;;;;;;;;6.73;85.18;97845.53;1724261;81;20158;-82
2022/02/07 02:55:38;;;;;;;;;;;;;;;7.09;83.89;97856.41;1752856;80;20609;-81
2022/02/07 02:58:04;;;;;;;;;;;;;;;7.11;83.76;97857.02;1745895;81;20148;-81
2022/02/07 03:00:30;;;;;;;;;;;;;;;7.12;82.98;97859.97;1735370;80;21062;-80
2022/02/07 03:02:56;;;;;;;;;;;;;;;7.01;83.39;97856.56;1741521;80;20300;-80
2022/02/07 03:05:21;;;;;;;;;;;;;;;7.17;82.86;97857.58;1741228;80;20159;-80
2022/02/07 03:07:47;;;;;;;;;;;;;;;6.71;84.32;97847.54;1744327;80;21275;-80
2022/02/07 03:10:23;;;;;;;;;;;;;;;7.23;82.77;97856.01;1745349;80;20149;-81
2022/02/07 03:12:57;;;;;;;;;;;;;;;7.07;82.79;97845.30;1744131;79;20594;-82
2022/02/07 03:17:52;;;;;;;;;;;;;;;6.74;84.41;97860.28;1737559;80;20221;-82
2022/02/07 03:20:19;;;;;;;;;;;;;;;6.97;82.75;97869.73;1739945;81;20144;-81
2022/02/07 03:22:44;;;;;;;;;;;;;;;7.00;82.10;97885.91;1733539;81;20160;-81
2022/02/07 03:25:10;;;;;;;;;;;;;;;6.75;83.04;97877.62;1747979;80;21048;-81
2022/02/07 03:27:36;;;;;;;;;;;;;;;6.62;84.23;97885.38;1741755;80;20758;-81
2022/02/07 03:30:02;;;;;;;;;;;;;;;6.57;84.23;97896.42;1743959;80;20272;-81
2022/02/07 03:32:27;;;;;;;;;;;;;;;6.59;84.13;97908.05;1739294;81;20168;-81
2022/02/07 03:34:53;;;;;;;;;;;;;;;6.72;83.93;97912.09;1738938;80;20185;-81
2022/02/07 03:37:18;;;;;;;;;;;;;;;6.57;84.27;97923.13;1742588;81;21220;-81
2022/02/07 03:39:44;;;;;;;;;;;;;;;6.52;84.62;97920.26;1744110;80;20670;-81
2022/02/07 03:42:09;;;;;;;;;;;;;;;6.72;84.08;97918.65;1744486;81;20157;-81
2022/02/07 03:44:35;;;;;;;;;;;;;;;6.52;84.57;97942.55;1744321;80;20804;-81
2022/02/07 03:47:01;;;;;;;;;;;;;;;6.62;84.36;97939.14;1744609;81;20156;-82
2022/02/07 03:49:26;;;;;;;;;;;;;;;6.61;83.81;97947.99;1741497;80;21909;-82
2022/02/07 03:51:52;;;;;;;;;;;;;;;6.77;83.02;97930.70;1744919;80;20121;-82
2022/02/07 03:54:17;;;;;;;;;;;;;;;6.46;83.43;97937.05;1734276;80;20165;-82
2022/02/07 03:56:43;;;;;;;;;;;;;;;6.73;82.67;97943.89;1721167;81;20164;-82
2022/02/07 03:59:08;;;;;;;;;;;;;;;6.66;82.84;97954.80;1722939;81;21253;-82
2022/02/07 04:01:35;;;;;;;;;;;;;;;6.74;82.48;97940.76;1719877;81;21961;-82
2022/02/07 04:04:01;;;;;;;;;;;;;;;6.73;82.14;97945.20;1725421;81;20222;-81
2022/02/07 04:06:27;;;;;;;;;;;;;;;6.65;82.15;97955.81;1722386;81;20216;-82
2022/02/07 04:08:58;;;;;;;;;;;;;;;6.72;82.17;97963.23;1726602;81;20780;-82
2022/02/07 04:11:32;;;;;;;;;;;;;;;6.70;82.05;97960.50;1722389;81;20133;-81
2022/02/07 04:13:54;;;;;;;;;;;;;;;6.82;81.96;97955.06;1727550;82;21015;-82
2022/02/07 04:16:18;;;;;;;;;;;;;;;6.78;81.57;97956.45;1724162;81;20188;-82
2022/02/07 04:21:21;;;;;;;;;;;;;;;7.21;79.79;97956.94;1722413;81;20364;-81
2022/02/07 04:23:46;;;;;;;;;;;;;;;7.45;79.18;97945.23;1719059;81;20290;-80
2022/02/07 04:26:12;;;;;;;;;;;;;;;7.04;79.59;97949.34;1727062;81;21623;-81
2022/02/07 04:28:37;;;;;;;;;;;;;;;6.97;80.17;97949.26;1721027;81;20216;-83
2022/02/07 04:31:03;;;;;;;;;;;;;;;6.96;80.39;97952.06;1722558;81;20161;-81
2022/02/07 04:33:28;;;;;;;;;;;;;;;6.92;79.28;97950.84;1719534;81;20740;-79
2022/02/07 04:35:54;;;;;;;;;;;;;;;7.01;79.23;97953.66;1722565;81;20317;-81
2022/02/07 04:38:20;;;;;;;;;;;;;;;6.83;80.03;97958.00;1722398;81;21219;-81
2022/02/07 04:40:45;;;;;;;;;;;;;;;7.16;78.49;97954.40;1723077;81;20376;-81
2022/02/07 04:43:13;;;;;;;;;;;;;;;7.13;78.28;97958.71;1724206;81;20139;-81
2022/02/07 04:59:16;;;;;;;;;;;;;;;7.32;76.51;97959.08;1681672;85;20167;-81
2022/02/07 05:01:22;;;;;;;;;;;;;;;7.35;76.40;97959.50;1667259;85;20266;-81
2022/02/07 05:03:45;;;;;;;;;;;;;;;7.36;76.23;97957.67;1697818;80;20097;-81
2022/02/07 05:14:23;;;;;;;;;;;;;;;7.61;75.44;97970.39;1749705;80;20147;-82
2022/02/07 05:16:53;;;;;;;;;;;;;;;7.62;75.04;97978.08;1752372;80;21096;-82
2022/02/07 05:19:17;;;;;;;;;;;;;;;7.44;75.73;97985.13;1747032;80;20154;-81
2022/02/07 05:21:42;;;;;;;;;;;;;;;7.36;75.96;97983.94;1745568;80;20492;-80
2022/02/07 05:24:08;;;;;;;;;;;;;;;7.37;76.20;97992.12;1749958;80;21311;-81
2022/02/07 05:26:34;;;;;;;;;;;;;;;7.42;75.91;97991.05;1748467;81;20154;-81
2022/02/07 05:29:03;;;;;;;;;;;;;;;7.42;75.71;97994.19;1750784;80;21164;-81
2022/02/07 05:31:27;;;;;;;;;;;;;;;7.46;75.84;97995.45;1751403;80;20162;-81
2022/02/07 05:33:52;;;;;;;;;;;;;;;7.63;75.76;97995.48;1756419;80;20716;-81
2022/02/07 05:36:18;;;;;;;;;;;;;;;7.72;75.34;97991.71;1747568;80;20841;-81
2022/02/07 05:38:47;;;;;;;;;;;;;;;7.71;75.31;97997.16;1756650;80;20174;-81
2022/02/07 05:41:12;;;;;;;;;;;;;;;7.94;74.89;98000.02;1750548;80;20158;-81
2022/02/07 05:43:40;;;;;;;;;;;;;;;7.88;74.92;97995.86;1749569;81;20683;-80
2022/02/07 05:46:05;;;;;;;;;;;;;;;8.06;74.67;98001.11;1756422;80;20645;-81
2022/02/07 05:48:31;;;;;;;;;;;;;;;8.08;74.54;97997.81;1750450;80;20226;-82
2022/02/07 05:50:57;;;;;;;;;;;;;;;8.11;74.24;98000.05;1748409;80;20127;-82
2022/02/07 05:53:22;;;;;;;;;;;;;;;8.20;74.16;98004.15;1755660;80;21164;-83
2022/02/07 05:55:48;;;;;;;;;;;;;;;8.10;73.77;98008.94;1720785;81;20533;-82
2022/02/07 05:58:13;;;;;;;;;;;;;;;8.27;74.09;98006.30;1715527;82;20197;-82
2022/02/07 06:00:39;;;;;;;;;;;;;;;8.27;73.99;98015.50;1713430;82;20138;-82
2022/02/07 06:03:04;;;;;;;;;;;;;;;8.57;73.28;98017.89;1707424;82;20166;-82
2022/02/07 06:05:30;;;;;;;;;;;;;;;8.78;72.68;98021.44;1721660;82;22329;-82
2022/02/07 06:07:56;;;;;;;;;;;;;;;8.75;72.12;98019.20;1711835;82;20199;-82
2022/02/07 06:10:21;;;;;;;;;;;;;;;8.91;72.09;98022.77;1718542;82;20162;-82
2022/02/07 06:12:47;;;;;;;;;;;;;;;8.87;71.93;98030.78;1717121;82;20115;-82
2022/02/07 06:15:13;;;;;;;;;;;;;;;8.90;72.14;98025.60;1717840;82;20250;-81
2022/02/07 06:17:39;;;;;;;;;;;;;;;8.90;72.06;98031.70;1689460;83;21096;-81
2022/02/07 06:20:06;;;;;;;;;;;;;;;8.47;73.07;98029.30;1689371;84;20326;-80
2022/02/07 06:22:32;;;;;;;;;;;;;;;8.23;74.54;98044.52;1698525;82;20214;-81
2022/02/07 06:24:57;;;;;;;;;;;;;;;8.31;74.78;98040.09;1717589;82;20725;-81
2022/02/07 06:27:23;;;;;;;;;;;;;;;8.38;74.97;98042.27;1717371;82;20139;-81
2022/02/07 06:29:49;;;;;;;;;;;;;;;8.38;74.94;98048.33;1704050;82;21973;-81
2022/02/07 06:32:15;;;;;;;;;;;;;;;8.43;75.01;98053.01;1674769;84;20123;-80
2022/02/07 06:34:40;;;;;;;;;;;;;;;8.22;75.60;98054.71;1677086;83;20277;-81
2022/02/07 06:37:06;;;;;;;;;;;;;;;8.33;75.20;98045.48;1708650;82;20166;-81
2022/02/07 06:39:32;;;;;;;;;;;;;;;8.05;76.45;98057.34;1721864;82;20178;-81
2022/02/07 06:41:58;;;;;;;;;;;;;;;7.80;77.05;98061.70;1720311;82;21814;-82
2022/02/07 06:44:25;;;;;;;;;;;;;;;7.45;79.21;98066.83;1716963;82;20119;-82
2022/02/07 06:46:50;;;;;;;;;;;;;;;7.32;80.41;98076.71;1722296;82;20203;-82
2022/02/07 06:49:16;;;;;;;;;;;;;;;7.13;80.54;98083.86;1719722;82;20241;-81
2022/02/07 06:51:42;;;;;;;;;;;;;;;6.93;81.41;98082.32;1721138;81;20127;-81
2022/02/07 06:54:07;;;;;;;;;;;;;;;6.99;81.70;98083.73;1709837;82;21091;-82
2022/02/07 06:56:33;;;;;;;;;;;;;;;6.90;82.61;98094.49;1733497;80;20166;-81
2022/02/07 06:58:58;;;;;;;;;;;;;;;6.52;83.13;98101.98;1751086;81;20462;-81
2022/02/07 07:01:24;;;;;;;;;;;;;;;6.58;83.49;98105.70;1746183;80;20665;-81
2022/02/07 07:03:50;;;;;;;;;;;;;;;6.22;82.80;98119.51;1742619;80;20255;-81
2022/02/07 07:06:15;;;;;;;;;;;;;;;5.85;83.69;98107.50;1742462;80;21169;-81
2022/02/07 07:08:47;;;;;;;;;;;;;;;5.63;84.69;98113.08;1745785;80;20304;-81
2022/02/07 07:11:11;;;;;;;;;;;;;;;5.65;83.94;98119.45;1729904;80;20186;-81
2022/02/07 07:13:49;;;;;;;;;;;;;;;5.66;84.18;98129.75;1737315;80;20541;-82
2022/02/07 07:16:36;;;;;;;;;;;;;;;5.44;84.69;98125.30;1738289;80;20615;-80
2022/02/07 07:18:41;;;;;;;;;;;;;;;5.55;84.53;98130.97;1743860;80;20122;-80
2022/02/07 07:21:07;;;;;;;;;;;;;;;5.51;84.77;98130.17;1740117;80;20759;-81
2022/02/07 07:23:34;;;;;;;;;;;;;;;5.25;85.42;98140.48;1729800;81;20184;-81
2022/02/07 07:26:01;;;;;;;;;;;;;;;5.31;85.17;98150.23;1741920;81;20193;-81
2022/02/07 07:28:27;;;;;;;;;;;;;;;5.44;84.90;98146.24;1728100;81;20121;-81
2022/02/07 07:30:56;;;;;;;;;;;;;;;5.45;84.93;98150.50;1728116;81;21934;-80
2022/02/07 07:33:23;;;;;;;;;;;;;;;5.61;84.05;98149.11;1733347;80;20143;-81
2022/02/07 07:35:48;;;;;;;;;;;;;;;5.78;83.47;98156.83;1739138;80;20158;-82
2022/02/07 07:38:13;;;;;;;;;;;;;;;5.61;83.88;98162.20;1739189;80;20154;-82
2022/02/07 07:40:40;;;;;;;;;;;;;;;5.77;82.96;98169.63;1732960;80;20204;-82
2022/02/07 07:43:07;;;;;;;;;;;;;;;5.92;82.56;98171.81;1714261;80;21179;-82
2022/02/07 07:45:40;;;;;;;;;;;;;;;5.84;82.64;98172.69;1703271;81;20209;-82
2022/02/07 07:48:04;;;;;;;;;;;;;;;5.92;82.39;98182.29;1725658;80;20126;-82
2022/02/07 07:50:39;;;;;;;;;;;;;;;5.98;82.46;98186.02;1738727;80;20167;-83
2022/02/07 08:03:38;;;;;;;;;;;;;;;5.71;83.39;98226.92;1728681;81;20163;-80
2022/02/07 08:06:51;;;;;;;;;;;;;;;5.72;83.20;98229.88;1729829;81;20112;-79
2022/02/07 08:08:35;;;;;;;;;;;;;;;5.59;83.32;98233.53;1703745;81;20161;-79
2022/02/07 08:11:05;;;;;;;;;;;;;;;5.38;84.66;98242.80;1737039;81;20134;-79
2022/02/07 08:13:31;;;;;;;;;;;;;;;5.29;84.90;98249.05;1718960;81;20610;-82
2022/02/07 08:15:56;;;;;;;;;;;;;;;5.39;84.83;98248.37;1731729;81;20539;-79
2022/02/07 08:18:21;;;;;;;;;;;;;;;5.28;85.26;98255.77;1724261;81;20299;-79
2022/02/07 08:20:47;;;;;;;;;;;;;;;5.23;85.45;98254.95;1736272;81;21032;-82
2022/02/07 08:23:13;;;;;;;;;;;;;;;5.12;86.30;98261.37;1721432;81;20220;-82
2022/02/07 08:25:38;;;;;;;;;;;;;;;5.16;86.59;98268.41;1728124;81;20132;-82
2022/02/07 08:28:04;;;;;;;;;;;;;;;5.25;86.37;98273.94;1726253;81;20187;-81
2022/02/07 08:30:29;;;;;;;;;;;;;;;4.93;87.00;98285.30;1730210;81;20218;-81
2022/02/07 08:32:57;;;;;;;;;;;;;;;4.88;87.95;98281.88;1728086;81;21093;-81
2022/02/07 08:35:25;;;;;;;;;;;;;;;4.92;87.74;98294.12;1727840;81;20180;-79
2022/02/07 08:37:50;;;;;;;;;;;;;;;4.87;87.70;98298.53;1721458;81;20522;-82
2022/02/07 08:40:16;;;;;;;;;;;;;;;4.71;88.63;98305.07;1722234;81;20134;-81
2022/02/07 08:42:42;;;;;;;;;;;;;;;4.66;88.84;98319.47;1721924;81;20559;-78
2022/02/07 08:45:08;;;;;;;;;;;;;;;4.53;89.40;98324.36;1727293;81;21861;-82
2022/02/07 08:47:34;;;;;;;;;;;;;;;4.46;90.07;98326.01;1726456;81;20179;-82
2022/02/07 08:50:01;;;;;;;;;;;;;;;4.65;89.63;98325.67;1725870;80;20231;-83
2022/02/07 08:52:30;;;;;;;;;;;;;;;4.67;89.37;98331.55;1726103;81;20179;-82
2022/02/07 08:54:58;;;;;;;;;;;;;;;4.61;90.08;98323.05;1734931;80;20142;-81
2022/02/07 09:02:51;;;;;;;;;;;;;;;4.43;90.21;98350.66;1752103;80;20201;-82
2022/02/07 09:04:57;;;;;;;;;;;;;;;4.48;90.71;98352.79;1760441;80;20124;-81
2022/02/07 09:07:23;;;;;;;;;;;;;;;4.62;90.39;98362.59;1764881;80;20600;-82
2022/02/07 09:09:45;;;;;;;;;;;;;;;4.28;91.78;98371.36;1757093;80;20159;-82
2022/02/07 09:12:13;;;;;;;;;;;;;;;4.49;90.82;98375.34;1758655;80;20487;-85
2022/02/07 09:14:50;;;;;;;;;;;;;;;4.33;91.33;98384.45;1759528;80;20164;-81
2022/02/07 09:17:11;;;;;;;;;;;;;;;4.44;91.34;98381.52;1758460;80;20198;-82
2022/02/07 09:19:37;;;;;;;;;;;;;;;4.21;91.92;98386.52;1756763;80;20185;-81
2022/02/07 09:22:04;;;;;;;;;;;;;;;4.17;92.42;98402.20;1757662;80;22424;-80
2022/02/07 09:24:30;;;;;;;;;;;;;;;4.37;92.00;98401.45;1755102;80;20180;-81
2022/02/07 09:26:58;;;;;;;;;;;;;;;3.92;93.03;98412.06;1753705;81;20183;-81
2022/02/07 09:29:25;;;;;;;;;;;;;;;4.01;93.15;98408.17;1758643;80;20172;-79
2022/02/07 09:31:51;;;;;;;;;;;;;;;4.20;92.91;98409.73;1759106;80;20550;-81
2022/02/07 09:34:18;;;;;;;;;;;;;;;4.52;91.89;98410.78;1759425;79;21146;-82
2022/02/07 09:36:43;;;;;;;;;;;;;;;4.23;92.99;98411.53;1751794;80;20181;-81
2022/02/07 09:39:09;;;;;;;;;;;;;;;4.37;92.50;98419.75;1760218;81;20184;-81
2022/02/07 09:41:35;;;;;;;;;;;;;;;4.23;92.85;98423.28;1759603;80;20252;-81
2022/02/07 09:44:02;;;;;;;;;;;;;;;4.41;92.24;98430.19;1758379;80;20186;-82
2022/02/07 09:46:43;;;;;;;;;;;;;;;4.31;92.96;98427.22;1754037;80;21029;-79
2022/02/07 09:49:03;;;;;;;;;;;;;;;4.21;93.49;98431.78;1754250;80;20114;-81
2022/02/07 09:51:29;;;;;;;;;;;;;;;4.34;93.07;98439.66;1757457;81;20184;-81
2022/02/07 09:53:54;;;;;;;;;;;;;;;4.58;91.57;98437.09;1759557;80;21226;-81
2022/02/07 09:56:20;;;;;;;;;;;;;;;4.64;91.49;98446.09;1740066;80;20176;-79
2022/02/07 09:58:50;;;;;;;;;;;;;;;4.72;91.13;98449.22;1724215;82;21096;-80
2022/02/07 10:01:23;;;;;;;;;;;;;;;4.83;90.87;98443.67;1725066;81;20182;-80
2022/02/07 10:03:54;;;;;;;;;;;;;;;4.49;91.75;98458.98;1720661;81;20152;-81
2022/02/07 10:06:35;;;;;;;;;;;;;;;4.44;92.40;98467.30;1720903;81;20153;-82
2022/02/07 10:09:16;;;;;;;;;;;;;;;4.56;91.89;98467.80;1726102;81;20178;-82
2022/02/07 10:11:40;;;;;;;;;;;;;;;4.79;91.30;98461.98;1725108;81;20142;-81
2022/02/07 10:14:12;;;;;;;;;;;;;;;4.61;91.50;98472.06;1728123;81;20167;-81
2022/02/07 10:16:44;;;;;;;;;;;;;;;4.26;93.14;98479.14;1726120;81;20164;-81
2022/02/07 10:39:00;;;;;;;;;;;;;;;4.71;91.29;98503.79;1669792;81;20475;-81
2022/02/07 10:40:42;;;;;;;;;;;;;;;4.95;90.39;98510.89;1713058;81;20132;-81
2022/02/07 10:46:07;;;;;;;;;;;;;;;4.90;90.75;98524.45;1727046;81;20115;-84
2022/02/07 10:48:48;;;;;;;;;;;;;;;4.84;91.31;98512.01;1721630;81;20933;-83
2022/02/07 10:51:21;;;;;;;;;;;;;;;4.90;91.18;98516.60;1718565;81;20208;-81
2022/02/07 10:53:56;;;;;;;;;;;;;;;4.89;91.03;98514.95;1722905;81;20181;-81
2022/02/07 10:56:35;;;;;;;;;;;;;;;4.61;92.11;98524.84;1724060;81;20414;-80
2022/02/07 10:58:57;;;;;;;;;;;;;;;4.49;92.52;98532.17;1736887;80;20193;-79
2022/02/07 11:02:00;;;;;;;;;;;;;;;4.57;92.14;98540.03;1749307;80;20205;-81
2022/02/07 11:04:09;;;;;;;;;;;;;;;4.47;92.67;98560.23;1746424;80;20146;-80
2022/02/07 11:06:34;;;;;;;;;;;;;;;4.47;92.18;98557.62;1749012;80;20162;-79
2022/02/07 11:14:13;;;;;;;;;;;;;;;4.48;92.40;98568.42;1746119;81;20152;-82
2022/02/07 11:16:59;;;;;;;;;;;;;;;4.33;92.99;98594.80;1740804;80;20825;-80
2022/02/07 11:19:41;;;;;;;;;;;;;;;4.38;92.59;98602.52;1734674;81;20084;-82
2022/02/07 11:22:24;;;;;;;;;;;;;;;4.35;92.55;98596.77;1743391;80;20456;-79
2022/02/07 11:24:50;;;;;;;;;;;;;;;4.19;93.66;98617.90;1743287;80;20141;-79
2022/02/07 11:27:42;;;;;;;;;;;;;;;4.17;94.29;98617.24;1717944;80;20903;-82
2022/02/07 11:30:09;;;;;;;;;;;;;;;4.05;94.45;98624.49;1744688;80;20120;-80
2022/02/07 11:32:47;;;;;;;;;;;;;;;4.20;94.42;98643.06;1715539;80;38910;-79
2022/02/07 11:35:21;;;;;;;;;;;;;;;4.28;94.84;98640.50;1738578;80;20539;-78
2022/02/07 11:37:50;;;;;;;;;;;;;;;4.27;94.11;98654.55;1752160;80;20188;-80
2022/02/07 11:40:33;;;;;;;;;;;;;;;3.96;95.54;98669.80;1728501;80;20191;-80
2022/02/07 11:43:08;;;;;;;;;;;;;;;4.03;95.56;98664.81;1746947;80;22192;-79
2022/02/07 11:45:52;;;;;;;;;;;;;;;3.94;95.65;98676.48;1741073;80;20124;-78
2022/02/07 11:48:29;;;;;;;;;;;;;;;4.02;95.32;98677.03;1745911;80;20193;-80
2022/02/07 11:50:57;;;;;;;;;;;;;;;3.83;95.33;98704.13;1738603;81;20486;-80
2022/02/07 11:53:31;;;;;;;;;;;;;;;4.00;95.13;98697.77;1743491;80;20143;-81
2022/02/07 11:56:22;;;;;;;;;;;;;;;3.93;95.65;98705.36;1746074;79;21097;-81
2022/02/07 11:58:55;;;;;;;;;;;;;;;3.87;95.54;98734.22;1742821;81;20874;-80
2022/02/07 12:01:24;;;;;;;;;;;;;;;4.00;95.73;98717.36;1744853;81;20151;-81
2022/02/07 12:03:53;;;;;;;;;;;;;;;4.06;95.81;98737.66;1748125;80;20121;-80
2022/02/07 12:06:23;;;;;;;;;;;;;;;3.93;95.29;98745.38;1744557;80;20199;-79
2022/02/07 12:08:48;;;;;;;;;;;;;;;4.03;95.95;98735.34;1744330;80;21107;-81
2022/02/07 12:11:16;;;;;;;;;;;;;;;4.05;95.36;98742.53;1743274;80;20359;-81
2022/02/07 12:13:43;;;;;;;;;;;;;;;4.25;93.97;98745.32;1742345;80;20163;-81
2022/02/07 12:16:20;;;;;;;;;;;;;;;4.22;94.22;98747.42;1745172;80;20771;-80
2022/02/07 12:19:00;;;;;;;;;;;;;;;4.12;94.58;98774.94;1745293;81;20165;-80
2022/02/07 12:21:28;;;;;;;;;;;;;;;4.22;93.82;98764.41;1748892;80;21004;-80
2022/02/07 12:24:00;;;;;;;;;;;;;;;4.44;93.27;98764.42;1740651;81;20140;-79
2022/02/07 12:26:25;;;;;;;;;;;;;;;4.64;92.46;98773.72;1721060;81;21033;-80
2022/02/07 12:28:58;;;;;;;;;;;;;;;4.45;92.58;98785.67;1749791;80;20261;-79
2022/02/07 12:31:21;;;;;;;;;;;;;;;4.77;91.53;98780.35;1738766;80;20472;-81
2022/02/07 12:34:12;;;;;;;;;;;;;;;4.62;92.00;98779.60;1744962;80;20709;-81
2022/02/07 12:36:36;;;;;;;;;;;;;;;4.80;90.96;98787.42;1738896;81;20163;-81
2022/02/07 12:39:04;;;;;;;;;;;;;;;4.92;91.03;98794.52;1745103;80;20189;-81
2022/02/07 12:41:31;;;;;;;;;;;;;;;4.78;90.89;98802.92;1734042;80;20198;-79
2022/02/07 12:43:58;;;;;;;;;;;;;;;4.78;90.73;98800.31;1744038;80;20168;-80
2022/02/07 12:46:26;;;;;;;;;;;;;;;4.80;90.74;98817.97;1744483;80;21039;-81
2022/02/07 12:48:57;;;;;;;;;;;;;;;4.99;90.17;98816.98;1744836;80;20192;-79
2022/02/07 12:51:31;;;;;;;;;;;;;;;5.06;90.23;98819.30;1755962;80;20153;-80
2022/02/07 12:53:58;;;;;;;;;;;;;;;5.12;89.98;98824.42;1742826;80;20737;-81
2022/02/07 12:56:24;;;;;;;;;;;;;;;5.12;89.75;98833.58;1744123;80;20486;-79
2022/02/07 12:58:50;;;;;;;;;;;;;;;4.88;90.18;98859.91;1741994;81;21067;-78
2022/02/07 13:01:25;;;;;;;;;;;;;;;4.86;90.68;98847.44;1747045;80;20536;-81
2022/02/07 13:03:54;;;;;;;;;;;;;;;4.81;91.05;98851.00;1743087;80;20507;-80
2022/02/07 13:06:34;;;;;;;;;;;;;;;4.86;91.05;98855.28;1727832;81;20191;-80
2022/02/07 13:09:03;;;;;;;;;;;;;;;4.90;91.07;98856.64;1729212;81;20194;-79
2022/02/07 13:11:32;;;;;;;;;;;;;;;4.97;90.34;98865.53;1728942;81;20379;-80
2022/02/07 13:13:55;;;;;;;;;;;;;;;5.20;88.93;98863.25;1728498;81;20147;-79
2022/02/07 13:16:21;;;;;;;;;;;;;;;5.04;88.79;98866.55;1725406;81;20234;-81
2022/02/07 13:18:47;;;;;;;;;;;;;;;5.04;88.80;98883.55;1725249;81;20630;-78
2022/02/07 13:21:17;;;;;;;;;;;;;;;5.07;88.29;98882.94;1734608;81;20150;-80
2022/02/07 13:23:41;;;;;;;;;;;;;;;5.10;88.53;98883.45;1725175;81;20479;-78
2022/02/07 13:26:09;;;;;;;;;;;;;;;5.00;87.78;98890.08;1730929;81;20165;-82
2022/02/07 13:28:38;;;;;;;;;;;;;;;5.31;86.74;98890.94;1725087;81;20277;-81
2022/02/07 13:31:02;;;;;;;;;;;;;;;5.42;86.67;98895.59;1722007;81;20177;-81
2022/02/07 13:33:27;;;;;;;;;;;;;;;5.52;86.18;98900.25;1723939;81;20186;-81
2022/02/07 13:35:56;;;;;;;;;;;;;;;5.73;85.63;98898.08;1719659;81;21191;-82
2022/02/07 13:38:21;;;;;;;;;;;;;;;5.62;85.52;98904.88;1724726;81;20213;-80
2022/02/07 13:40:54;;;;;;;;;;;;;;;5.79;85.51;98908.91;1724446;80;20216;-81
2022/02/07 13:43:22;;;;;;;;;;;;;;;5.56;85.21;98908.95;1719844;81;20215;-81
2022/02/07 13:45:52;;;;;;;;;;;;;;;5.86;84.97;98917.80;1729023;81;20247;-80
2022/02/07 13:48:19;;;;;;;;;;;;;;;5.68;85.68;98922.59;1728691;81;20976;-81
2022/02/07 13:50:47;;;;;;;;;;;;;;;5.40;86.06;98937.14;1723735;81;20177;-81
2022/02/07 13:53:13;;;;;;;;;;;;;;;5.62;85.75;98939.42;1698665;82;20198;-79
2022/02/07 13:55:40;;;;;;;;;;;;;;;5.54;85.41;98951.97;1722512;82;20802;-83
2022/02/07 13:58:10;;;;;;;;;;;;;;;5.36;86.21;98946.30;1736394;80;20510;-81
2022/02/07 14:00:39;;;;;;;;;;;;;;;5.57;85.33;98966.06;1743693;80;21056;-82
2022/02/07 14:03:13;;;;;;;;;;;;;;;5.36;86.93;98981.63;1734105;80;20254;-80
2022/02/07 14:05:47;;;;;;;;;;;;;;;5.34;86.29;98997.95;1739898;80;20472;-79
2022/02/07 14:08:13;;;;;;;;;;;;;;;5.28;86.48;98982.04;1760714;80;20795;-80
2022/02/07 14:10:40;;;;;;;;;;;;;;;5.31;86.40;98989.09;1760025;80;20269;-81
2022/02/07 14:13:07;;;;;;;;;;;;;;;5.34;86.25;98994.03;1753321;80;21125;-81
2022/02/07 14:15:34;;;;;;;;;;;;;;;5.43;85.63;99008.52;1761037;80;20127;-81
2022/02/07 14:18:02;;;;;;;;;;;;;;;5.30;86.40;99005.80;1757444;80;20149;-81
2022/02/07 14:20:30;;;;;;;;;;;;;;;5.52;85.95;99012.84;1732445;80;20172;-82
2022/02/07 14:22:54;;;;;;;;;;;;;;;5.29;86.79;99018.53;1756504;80;20126;-82
2022/02/07 14:25:20;;;;;;;;;;;;;;;5.17;86.99;99034.13;1755328;80;21977;-81
2022/02/07 14:27:46;;;;;;;;;;;;;;;5.19;87.02;99029.09;1751248;80;20201;-79
2022/02/07 14:30:12;;;;;;;;;;;;;;;5.52;85.57;99041.66;1750779;80;20132;-83
2022/02/07 14:32:38;;;;;;;;;;;;;;;5.50;85.97;99045.73;1752567;80;21135;-81
2022/02/07 14:35:04;;;;;;;;;;;;;;;5.52;85.52;99052.12;1744518;80;20134;-81
2022/02/07 14:37:29;;;;;;;;;;;;;;;5.40;85.86;99062.80;1753004;80;21120;-79
2022/02/07 14:39:55;;;;;;;;;;;;;;;5.34;85.75;99052.12;1759553;80;20171;-84
2022/02/07 14:42:20;;;;;;;;;;;;;;;5.55;85.70;99078.82;1751753;80;20155;-82
2022/02/07 14:44:58;;;;;;;;;;;;;;;5.42;85.85;99077.05;1747707;80;20696;-82
2022/02/07 14:47:26;;;;;;;;;;;;;;;5.51;85.94;99080.58;1749309;80;20156;-80
2022/02/07 14:49:41;;;;;;;;;;;;;;;5.54;85.62;99081.59;1753943;80;20087;-82
2022/02/07 14:52:07;;;;;;;;;;;;;;;5.49;86.38;99107.41;1754107;80;21157;-81
2022/02/07 14:54:34;;;;;;;;;;;;;;;5.66;84.83;99103.15;1746628;80;20157;-79
2022/02/07 14:56:59;;;;;;;;;;;;;;;5.73;84.48;99102.39;1751055;80;20192;-83
2022/02/07 14:59:25;;;;;;;;;;;;;;;5.61;84.85;99114.08;1736711;81;20158;-84
2022/02/07 15:01:54;;;;;;;;;;;;;;;5.68;84.48;99116.41;1753254;80;21980;-81
2022/02/07 15:04:20;;;;;;;;;;;;;;;5.67;84.55;99126.57;1750821;80;20214;-81
2022/02/07 15:06:46;;;;;;;;;;;;;;;5.84;83.92;99127.54;1750610;80;20329;-81
2022/02/07 15:09:11;;;;;;;;;;;;;;;6.16;82.60;99133.21;1753737;80;20192;-80
2022/02/07 15:11:37;;;;;;;;;;;;;;;5.81;83.62;99134.86;1743756;80;20439;-80
2022/02/07 15:14:02;;;;;;;;;;;;;;;5.92;83.56;99133.34;1749207;80;21988;-79
2022/02/07 15:16:28;;;;;;;;;;;;;;;6.21;82.34;99144.05;1750654;80;20134;-82
2022/02/07 15:18:53;;;;;;;;;;;;;;;6.02;82.65;99147.19;1749836;81;20646;-79